Time;durP1;ratioP1;P1;durP2;ratioP2;P2;SDS_P1;SDS_P2;PMS_P1;PMS_P2;Temp;Humidity;BMP_temperature;BMP_pressure;BME280_temperature;BME280_humidity;BME280_pressure;Samples;Min_cycle;Max_cycle;Signal;HPM_P1;HPM_P2
2021/03/04 00:02:04;;;;;;;18.10;9.17;;;10.00;99.90;;;;;;5055587;28;20497;-86
2021/03/04 00:04:30;;;;;;;19.60;10.10;;;10.00;99.90;;;;;;5042149;28;20982;-86
2021/03/04 00:06:57;;;;;;;13.90;9.07;;;9.90;99.90;;;;;;5046980;28;20500;-85
2021/03/04 00:09:23;;;;;;;17.60;10.00;;;10.00;99.90;;;;;;5054135;28;20475;-84
2021/03/04 00:11:49;;;;;;;20.33;9.27;;;9.90;99.90;;;;;;5054426;28;20442;-84
2021/03/04 00:14:17;;;;;;;13.10;8.33;;;9.90;99.90;;;;;;5066721;28;20488;-84
2021/03/04 00:16:43;;;;;;;15.00;8.93;;;9.90;99.90;;;;;;5065079;28;20967;-85
2021/03/04 00:19:10;;;;;;;14.67;9.73;;;10.00;99.90;;;;;;5052547;28;20475;-83
2021/03/04 00:21:36;;;;;;;17.70;10.93;;;10.00;99.90;;;;;;5052379;28;20482;-85
2021/03/04 00:24:03;;;;;;;13.70;9.50;;;9.90;99.90;;;;;;5052343;28;20486;-83
2021/03/04 00:26:29;;;;;;;15.00;9.43;;;9.90;99.90;;;;;;5053663;28;20508;-83
2021/03/04 00:28:56;;;;;;;19.30;10.60;;;9.80;99.90;;;;;;5051255;28;20444;-83
2021/03/04 00:31:23;;;;;;;21.47;10.03;;;9.90;99.90;;;;;;5049967;28;20429;-86
2021/03/04 00:33:49;;;;;;;19.33;9.00;;;10.00;99.90;;;;;;5053701;28;20474;-85
2021/03/04 00:36:16;;;;;;;14.40;9.57;;;9.90;99.90;;;;;;5054170;28;20809;-87
2021/03/04 00:38:42;;;;;;;13.90;10.10;;;9.90;99.90;;;;;;5035037;28;20520;-86
2021/03/04 00:41:08;;;;;;;16.13;8.63;;;9.80;99.90;;;;;;5039607;28;20512;-84
2021/03/04 00:43:35;;;;;;;15.20;9.03;;;9.80;99.90;;;;;;5053947;28;20460;-84
2021/03/04 00:46:01;;;;;;;13.20;9.07;;;9.80;99.90;;;;;;5054194;28;20473;-85
2021/03/04 00:48:29;;;;;;;12.77;8.27;;;9.80;99.90;;;;;;5053261;28;20482;-87
2021/03/04 00:50:55;;;;;;;13.90;8.27;;;9.80;99.90;;;;;;5046564;28;20976;-85
2021/03/04 00:53:21;;;;;;;12.23;9.03;;;9.80;99.90;;;;;;5048217;28;20556;-83
2021/03/04 00:55:48;;;;;;;18.23;8.83;;;9.90;99.90;;;;;;5045813;28;20458;-86
2021/03/04 00:58:14;;;;;;;11.93;7.80;;;9.90;99.90;;;;;;5047132;28;20458;-86
2021/03/04 01:00:41;;;;;;;23.73;9.20;;;9.90;99.90;;;;;;5049905;28;20541;-84
2021/03/04 01:03:07;;;;;;;14.93;8.20;;;9.80;99.90;;;;;;5044185;28;20480;-85
2021/03/04 01:05:35;;;;;;;14.23;8.03;;;9.90;99.90;;;;;;5044478;28;20534;-85
2021/03/04 01:08:01;;;;;;;13.70;8.70;;;9.80;99.90;;;;;;5042514;28;20442;-85
2021/03/04 01:10:33;;;;;;;12.60;7.90;;;9.80;99.90;;;;;;5042019;28;20457;-85
2021/03/04 01:12:59;;;;;;;12.17;8.67;;;9.80;99.90;;;;;;5042353;28;20477;-85
2021/03/04 01:15:25;;;;;;;14.90;8.17;;;9.80;99.90;;;;;;5042991;28;20453;-86
2021/03/04 01:17:52;;;;;;;11.60;7.73;;;9.80;99.90;;;;;;5043793;28;20450;-85
2021/03/04 01:20:19;;;;;;;18.63;8.30;;;9.70;99.90;;;;;;5045639;28;20477;-85
2021/03/04 01:22:47;;;;;;;14.50;8.83;;;10.00;99.90;;;;;;5048770;28;20457;-86
2021/03/04 01:25:14;;;;;;;11.87;7.53;;;9.80;99.90;;;;;;5042070;28;20445;-84
2021/03/04 01:27:41;;;;;;;13.13;7.43;;;9.70;99.90;;;;;;5044162;28;20488;-84
2021/03/04 01:30:09;;;;;;;11.03;7.30;;;9.80;99.90;;;;;;5044814;28;20504;-84
2021/03/04 01:32:36;;;;;;;15.60;7.70;;;9.70;99.90;;;;;;5044752;28;20517;-85
2021/03/04 01:35:04;;;;;;;13.83;7.90;;;9.30;99.90;;;;;;5056340;28;20468;-85
2021/03/04 01:37:30;;;;;;;12.40;7.47;;;9.60;99.90;;;;;;5053091;28;20502;-85
2021/03/04 01:39:57;;;;;;;13.33;7.50;;;9.20;99.90;;;;;;5038445;28;20481;-87
2021/03/04 01:42:24;;;;;;;13.20;6.97;;;9.50;99.90;;;;;;5036157;28;20548;-84
2021/03/04 01:44:50;;;;;;;10.67;7.60;;;9.60;99.90;;;;;;5037427;28;20572;-85
2021/03/04 01:47:19;;;;;;;9.63;6.73;;;9.40;99.90;;;;;;5038703;28;20461;-86
2021/03/04 01:49:46;;;;;;;16.00;7.80;;;9.50;99.90;;;;;;5037603;28;20481;-87
2021/03/04 01:52:13;;;;;;;15.40;8.20;;;9.70;99.90;;;;;;5039110;28;20457;-85
2021/03/04 01:54:39;;;;;;;12.90;7.50;;;9.60;99.90;;;;;;5038170;28;20520;-87
2021/03/04 01:57:07;;;;;;;12.93;7.37;;;9.30;99.90;;;;;;5051655;28;20530;-83
2021/03/04 01:59:33;;;;;;;13.27;7.50;;;9.50;99.90;;;;;;5074695;28;20493;-84
2021/03/04 02:02:00;;;;;;;11.00;7.13;;;9.30;99.90;;;;;;5076114;28;20530;-85
2021/03/04 02:04:26;;;;;;;12.70;6.80;;;9.70;99.90;;;;;;5055049;28;20505;-84
2021/03/04 02:07:02;;;;;;;11.97;7.43;;;9.50;99.90;;;;;;5053154;28;20489;-88
2021/03/04 02:09:30;;;;;;;14.47;7.63;;;9.60;99.90;;;;;;5052919;28;20442;-86
2021/03/04 02:12:02;;;;;;;11.40;7.23;;;9.40;99.90;;;;;;5048210;28;20446;-88
2021/03/04 02:14:36;;;;;;;13.23;8.17;;;9.70;99.90;;;;;;5038786;28;20513;-86
2021/03/04 02:17:07;;;;;;;12.67;6.70;;;9.90;99.90;;;;;;5037586;28;20434;-86
2021/03/04 02:19:46;;;;;;;13.90;7.10;;;9.90;99.90;;;;;;5037244;28;20584;-87
2021/03/04 02:22:40;;;;;;;12.23;7.13;;;9.80;99.90;;;;;;5037365;28;20438;-87
2021/03/04 02:25:13;;;;;;;9.97;6.60;;;9.90;99.90;;;;;;5037368;28;20489;-85
2021/03/04 02:27:41;;;;;;;13.33;7.70;;;9.90;99.70;;;;;;5037892;28;20439;-86
2021/03/04 02:30:10;;;;;;;10.87;7.20;;;9.60;99.50;;;;;;5051883;28;20477;-86
2021/03/04 02:32:42;;;;;;;10.80;7.23;;;9.70;99.80;;;;;;5058150;28;20426;-87
2021/03/04 02:35:13;;;;;;;10.73;7.10;;;9.50;99.90;;;;;;5057453;28;20477;-87
2021/03/04 02:37:44;;;;;;;13.23;7.50;;;9.40;99.90;;;;;;5040817;28;20501;-84
2021/03/04 02:40:12;;;;;;;10.23;6.67;;;9.40;99.90;;;;;;5039736;28;20856;-87
2021/03/04 02:42:41;;;;;;;12.83;7.07;;;9.40;99.90;;;;;;5038390;28;20529;-87
2021/03/04 02:45:10;;;;;;;11.27;6.77;;;9.30;99.90;;;;;;5054943;28;20537;-84
2021/03/04 02:47:39;;;;;;;17.07;7.50;;;9.40;99.90;;;;;;5053375;28;20461;-86
2021/03/04 02:50:07;;;;;;;13.43;7.00;;;9.00;99.90;;;;;;5047398;28;20419;-87
2021/03/04 02:52:35;;;;;;;10.27;6.70;;;9.20;99.90;;;;;;5038253;28;20450;-86
2021/03/04 02:55:02;;;;;;;8.83;6.20;;;9.40;99.90;;;;;;5036484;28;21150;-87
2021/03/04 02:57:29;;;;;;;12.67;6.93;;;9.40;99.90;;;;;;5023706;28;20521;-87
2021/03/04 02:59:57;;;;;;;11.10;6.70;;;9.40;99.90;;;;;;5034804;28;20461;-87
2021/03/04 03:02:25;;;;;;;13.00;7.63;;;9.30;99.90;;;;;;5048970;28;20434;-84
2021/03/04 03:04:52;;;;;;;10.40;6.93;;;9.10;99.90;;;;;;5049967;28;20494;-87
2021/03/04 03:07:18;;;;;;;11.50;6.73;;;9.40;99.90;;;;;;5051331;28;20484;-84
2021/03/04 03:09:45;;;;;;;12.20;6.80;;;9.40;99.90;;;;;;5073368;28;20445;-86
2021/03/04 03:12:13;;;;;;;10.03;6.50;;;9.00;99.90;;;;;;5073396;28;20445;-85
2021/03/04 03:14:39;;;;;;;15.37;7.40;;;9.40;99.90;;;;;;5056566;28;20475;-86
2021/03/04 03:17:07;;;;;;;11.55;6.35;;;9.30;99.90;;;;;;5044032;28;20446;-86
2021/03/04 03:19:34;;;;;;;11.57;6.83;;;9.30;99.90;;;;;;5035111;28;20209;-85
2021/03/04 03:22:01;;;;;;;9.80;7.03;;;9.30;99.90;;;;;;5041428;28;20474;-86
2021/03/04 03:24:27;;;;;;;10.80;6.10;;;9.20;99.90;;;;;;5039749;28;20546;-86
2021/03/04 03:26:54;;;;;;;11.40;7.00;;;9.20;99.90;;;;;;5039125;28;20458;-86
2021/03/04 03:29:21;;;;;;;10.90;7.00;;;9.00;99.90;;;;;;5044755;28;20485;-85
2021/03/04 03:31:49;;;;;;;14.83;6.83;;;9.40;99.90;;;;;;5017283;28;20505;-87
2021/03/04 03:34:17;;;;;;;10.53;6.53;;;9.20;99.90;;;;;;5023464;28;20834;-85
2021/03/04 03:36:44;;;;;;;11.37;6.70;;;9.20;99.90;;;;;;5041480;28;20967;-86
2021/03/04 03:39:10;;;;;;;16.90;8.55;;;9.00;99.90;;;;;;5060098;28;20480;-86
2021/03/04 03:41:40;;;;;;;13.43;7.03;;;9.30;99.90;;;;;;5061156;28;20230;-85
2021/03/04 03:44:09;;;;;;;11.07;6.47;;;9.30;99.90;;;;;;5045619;28;20470;-85
2021/03/04 03:46:36;;;;;;;12.27;7.03;;;9.40;99.90;;;;;;5043375;28;20541;-86
2021/03/04 03:49:04;;;;;;;10.80;7.30;;;9.00;99.90;;;;;;5020639;28;20457;-85
2021/03/04 03:51:33;;;;;;;10.03;6.40;;;9.20;99.90;;;;;;5020481;28;20676;-85
2021/03/04 03:54:02;;;;;;;11.13;6.57;;;9.30;99.90;;;;;;5049270;28;20522;-88
2021/03/04 03:56:30;;;;;;;12.67;7.00;;;9.20;99.90;;;;;;5052746;28;20501;-86
2021/03/04 03:58:59;;;;;;;10.93;6.73;;;9.20;99.90;;;;;;5047900;28;20948;-86
2021/03/04 04:01:28;;;;;;;12.10;6.83;;;9.10;99.90;;;;;;5043787;28;20493;-85
2021/03/04 04:03:56;;;;;;;16.57;7.50;;;9.10;99.90;;;;;;5044829;28;20500;-86
2021/03/04 04:06:23;;;;;;;11.13;6.75;;;9.20;99.90;;;;;;5026918;28;20527;-86
2021/03/04 04:08:51;;;;;;;14.88;6.68;;;9.00;99.90;;;;;;5034967;28;20214;-85
2021/03/04 04:11:20;;;;;;;9.07;6.20;;;9.00;99.90;;;;;;5044836;28;20200;-86
2021/03/04 04:13:46;;;;;;;9.90;7.07;;;9.00;99.90;;;;;;5043408;28;20524;-86
2021/03/04 04:16:13;;;;;;;11.90;7.57;;;9.00;99.90;;;;;;5055653;28;20473;-86
2021/03/04 04:18:40;;;;;;;10.15;6.47;;;9.10;99.90;;;;;;5042779;28;20483;-85
2021/03/04 04:21:07;;;;;;;12.00;7.20;;;8.90;99.90;;;;;;5046719;28;20226;-86
2021/03/04 04:23:34;;;;;;;12.27;7.38;;;9.00;99.90;;;;;;5043311;28;20481;-85
2021/03/04 04:26:01;;;;;;;10.70;7.13;;;8.80;99.90;;;;;;5043386;28;20211;-85
2021/03/04 04:28:28;;;;;;;11.70;5.90;;;8.90;99.90;;;;;;5045244;28;20518;-84
2021/03/04 04:30:54;;;;;;;11.67;6.90;;;8.50;99.90;;;;;;5042322;28;20441;-85
2021/03/04 04:33:21;;;;;;;10.00;6.50;;;8.70;99.90;;;;;;5065088;28;20495;-84
2021/03/04 04:35:48;;;;;;;16.03;7.50;;;9.00;99.90;;;;;;5045373;28;20797;-86
2021/03/04 04:38:15;;;;;;;13.68;6.60;;;8.80;99.90;;;;;;5044034;28;20865;-86
2021/03/04 04:40:41;;;;;;;12.83;7.33;;;8.90;99.90;;;;;;5055564;28;20230;-86
2021/03/04 04:43:09;;;;;;;9.30;7.10;;;8.90;99.90;;;;;;5053971;28;20596;-86
2021/03/04 04:45:35;;;;;;;10.98;6.85;;;8.70;99.90;;;;;;5044136;28;20286;-86
2021/03/04 04:48:01;;;;;;;9.77;6.22;;;8.80;99.90;;;;;;5043753;28;20287;-86
2021/03/04 04:50:28;;;;;;;17.97;6.47;;;8.80;99.90;;;;;;5044451;28;20211;-86
2021/03/04 04:52:54;;;;;;;13.02;7.32;;;8.80;99.90;;;;;;5042204;28;21174;-85
2021/03/04 04:55:21;;;;;;;12.30;6.68;;;8.70;99.90;;;;;;5044098;28;20263;-85
2021/03/04 04:57:48;;;;;;;12.50;6.80;;;8.80;99.90;;;;;;5043226;28;20203;-86
2021/03/04 05:00:16;;;;;;;11.03;6.70;;;9.00;99.90;;;;;;5044603;28;20528;-86
2021/03/04 05:02:42;;;;;;;12.10;6.70;;;9.00;99.90;;;;;;5044484;28;20580;-85
2021/03/04 05:05:09;;;;;;;11.80;7.37;;;8.90;99.90;;;;;;5048021;28;20678;-86
2021/03/04 05:07:36;;;;;;;10.10;6.17;;;9.00;99.90;;;;;;5045791;28;20461;-86
2021/03/04 05:10:03;;;;;;;11.23;6.90;;;9.00;99.90;;;;;;5044235;28;20569;-86
2021/03/04 05:12:30;;;;;;;11.97;6.43;;;9.00;99.90;;;;;;5058429;28;20464;-85
2021/03/04 05:14:56;;;;;;;13.80;7.90;;;9.00;99.90;;;;;;5043311;28;20494;-86
2021/03/04 05:17:24;;;;;;;12.13;7.88;;;8.80;99.90;;;;;;5041720;28;20521;-85
2021/03/04 05:19:50;;;;;;;13.23;7.80;;;8.40;99.90;;;;;;5044394;28;20229;-85
2021/03/04 05:22:17;;;;;;;15.15;7.30;;;8.90;99.90;;;;;;5042553;28;21031;-86
2021/03/04 05:24:43;;;;;;;13.43;7.10;;;8.70;99.90;;;;;;5042882;28;20238;-86
2021/03/04 05:27:09;;;;;;;13.10;6.28;;;8.70;99.90;;;;;;5044216;28;20289;-86
2021/03/04 05:29:36;;;;;;;11.77;7.07;;;8.80;99.90;;;;;;5043720;28;20261;-85
2021/03/04 05:32:03;;;;;;;12.63;6.80;;;8.90;99.90;;;;;;5052061;28;20513;-85
2021/03/04 05:34:30;;;;;;;14.07;7.40;;;8.80;99.90;;;;;;5041361;28;20545;-86
2021/03/04 05:36:57;;;;;;;12.30;7.30;;;8.70;99.90;;;;;;5043483;28;20440;-86
2021/03/04 05:39:39;;;;;;;14.63;6.78;;;8.70;99.90;;;;;;5044612;28;20630;-85
2021/03/04 05:42:06;;;;;;;12.47;7.53;;;8.60;99.90;;;;;;5042388;28;20255;-87
2021/03/04 05:44:33;;;;;;;11.35;7.05;;;8.10;99.90;;;;;;5042294;28;20552;-87
2021/03/04 05:47:00;;;;;;;14.60;7.27;;;8.60;99.90;;;;;;5052305;28;20203;-85
2021/03/04 05:49:30;;;;;;;11.20;6.47;;;8.30;99.90;;;;;;5047767;28;20486;-84
2021/03/04 05:51:59;;;;;;;13.00;7.35;;;8.50;99.90;;;;;;5045751;28;20457;-86
2021/03/04 05:54:28;;;;;;;11.77;6.20;;;8.60;99.90;;;;;;5046506;28;20219;-86
2021/03/04 05:56:57;;;;;;;14.70;6.95;;;8.60;99.90;;;;;;5052117;28;20450;-85
2021/03/04 05:59:23;;;;;;;9.87;6.17;;;8.50;99.90;;;;;;5054381;28;20278;-85
2021/03/04 06:01:51;;;;;;;16.97;7.20;;;8.50;99.90;;;;;;5042050;28;21071;-86
2021/03/04 06:04:18;;;;;;;12.48;6.95;;;8.60;99.90;;;;;;5038880;28;20474;-85
2021/03/04 06:06:46;;;;;;;15.75;7.15;;;8.60;99.90;;;;;;5039693;28;20207;-85
2021/03/04 06:09:13;;;;;;;18.63;8.13;;;8.50;99.90;;;;;;5049438;28;20408;-84
2021/03/04 06:11:39;;;;;;;12.55;6.78;;;8.50;99.90;;;;;;5055041;28;20203;-84
2021/03/04 06:14:05;;;;;;;13.07;6.97;;;8.60;99.90;;;;;;5066043;28;20226;-83
2021/03/04 06:16:32;;;;;;;17.53;7.93;;;8.40;99.90;;;;;;5056534;28;20505;-84
2021/03/04 06:18:59;;;;;;;14.97;7.37;;;8.50;99.90;;;;;;5052996;28;20458;-85
2021/03/04 06:21:26;;;;;;;13.00;6.47;;;8.40;99.90;;;;;;5054793;28;20486;-83
2021/03/04 06:23:55;;;;;;;10.88;6.70;;;8.40;99.90;;;;;;5054707;28;20452;-85
2021/03/04 06:26:29;;;;;;;10.93;7.38;;;8.60;99.90;;;;;;5042656;28;20211;-86
2021/03/04 06:28:56;;;;;;;15.25;7.82;;;8.30;99.90;;;;;;5052787;28;20203;-85
2021/03/04 06:33:56;;;;;;;12.17;7.60;;;8.60;99.90;;;;;;4965370;28;20584;-77
2021/03/04 06:36:23;;;;;;;11.00;7.30;;;8.40;99.90;;;;;;4954908;28;20461;-76
2021/03/04 06:38:56;;;;;;;13.98;7.25;;;8.50;99.90;;;;;;4950072;28;20202;-77
2021/03/04 06:41:23;;;;;;;13.23;7.30;;;8.50;99.90;;;;;;4951709;28;20260;-77
2021/03/04 06:44:00;;;;;;;12.82;7.53;;;8.50;99.90;;;;;;4932390;29;20342;-74
2021/03/04 06:46:26;;;;;;;16.90;7.73;;;8.40;99.90;;;;;;4913687;29;20211;-75
2021/03/04 06:48:53;;;;;;;14.97;7.60;;;8.40;99.90;;;;;;4930823;29;20498;-74
2021/03/04 06:51:20;;;;;;;11.10;7.57;;;8.60;99.90;;;;;;4934325;29;20461;-74
2021/03/04 06:53:53;;;;;;;13.00;6.40;;;8.50;99.90;;;;;;4932880;29;20261;-75
2021/03/04 06:56:30;;;;;;;16.90;8.30;;;8.50;99.90;;;;;;4932524;29;20486;-75
2021/03/04 06:59:14;;;;;;;11.20;6.45;;;8.60;99.90;;;;;;4932930;29;20294;-74
2021/03/04 07:01:41;;;;;;;12.70;7.80;;;8.40;99.90;;;;;;4928776;29;20309;-74
2021/03/04 07:04:13;;;;;;;14.18;7.97;;;8.40;99.90;;;;;;4939453;29;20499;-74
2021/03/04 07:06:40;;;;;;;13.73;8.30;;;8.60;99.90;;;;;;4928532;29;20259;-74
2021/03/04 07:09:07;;;;;;;19.97;7.03;;;8.60;99.90;;;;;;4931823;29;20454;-74
2021/03/04 07:11:37;;;;;;;16.03;7.60;;;8.70;99.90;;;;;;4931388;29;20779;-75
2021/03/04 07:14:06;;;;;;;17.23;8.63;;;8.70;99.90;;;;;;4932780;29;20462;-75
2021/03/04 07:16:36;;;;;;;16.37;8.10;;;9.00;99.90;;;;;;4922553;29;20462;-75
2021/03/04 07:19:03;;;;;;;13.97;7.97;;;9.00;99.90;;;;;;4927584;29;20476;-74
2021/03/04 07:21:37;;;;;;;13.83;8.33;;;9.00;99.90;;;;;;4914044;29;20494;-75
2021/03/04 07:24:04;;;;;;;15.00;7.80;;;9.30;99.90;;;;;;4926456;29;20584;-74
2021/03/04 07:26:31;;;;;;;15.43;8.30;;;9.30;99.50;;;;;;4931864;29;20478;-74
2021/03/04 07:29:03;;;;;;;13.30;8.13;;;9.40;99.30;;;;;;4917260;29;20819;-75
2021/03/04 07:31:29;;;;;;;15.40;8.37;;;9.50;99.00;;;;;;4917712;29;20546;-76
2021/03/04 07:33:56;;;;;;;11.73;8.50;;;9.10;98.80;;;;;;4945008;29;20557;-80
2021/03/04 07:36:24;;;;;;;13.07;8.50;;;9.50;99.00;;;;;;4939302;29;20458;-76
2021/03/04 07:38:55;;;;;;;16.07;7.93;;;9.70;99.30;;;;;;4937674;29;21060;-76
2021/03/04 07:41:21;;;;;;;13.73;7.80;;;9.70;98.70;;;;;;4925039;29;20465;-77
2021/03/04 07:43:51;;;;;;;15.03;8.50;;;9.80;98.60;;;;;;4939217;29;20474;-76
2021/03/04 07:46:28;;;;;;;15.50;9.13;;;10.00;97.80;;;;;;4931497;29;20454;-77
2021/03/04 07:48:55;;;;;;;14.93;8.93;;;10.10;97.60;;;;;;4936020;29;20454;-77
2021/03/04 07:51:22;;;;;;;19.50;9.67;;;10.30;97.50;;;;;;4920008;29;20466;-74
2021/03/04 07:53:48;;;;;;;12.93;7.83;;;10.40;97.00;;;;;;4916984;29;20493;-74
2021/03/04 07:56:25;;;;;;;15.17;8.90;;;10.60;96.80;;;;;;4925862;29;20473;-79
2021/03/04 07:58:52;;;;;;;15.00;9.20;;;10.80;96.20;;;;;;4952151;29;20469;-77
2021/03/04 08:01:18;;;;;;;14.00;8.27;;;11.00;95.90;;;;;;4956409;28;20468;-77
2021/03/04 08:03:47;;;;;;;14.73;8.83;;;11.20;95.20;;;;;;4937193;28;20513;-77
2021/03/04 08:06:14;;;;;;;17.23;8.20;;;11.30;95.10;;;;;;4935967;29;20852;-79
2021/03/04 08:08:41;;;;;;;15.00;9.20;;;11.50;94.00;;;;;;4936535;29;20473;-78
2021/03/04 08:11:08;;;;;;;19.43;9.23;;;11.70;93.60;;;;;;4937044;29;20480;-78
2021/03/04 08:13:35;;;;;;;14.73;8.87;;;11.80;93.00;;;;;;4938021;29;20506;-78
2021/03/04 08:16:02;;;;;;;16.53;8.30;;;11.90;92.40;;;;;;4937507;29;20513;-78
2021/03/04 08:18:29;;;;;;;15.90;9.00;;;11.90;92.60;;;;;;4936927;29;20462;-78
2021/03/04 08:21:05;;;;;;;15.63;8.80;;;12.00;91.60;;;;;;4936048;29;20481;-78
2021/03/04 08:23:31;;;;;;;15.10;7.33;;;12.10;90.80;;;;;;4937601;29;20509;-78
2021/03/04 08:25:59;;;;;;;15.90;7.90;;;12.10;90.10;;;;;;4937088;29;20437;-78
2021/03/04 08:28:27;;;;;;;16.70;7.80;;;12.10;89.10;;;;;;4948567;29;20458;-78
2021/03/04 08:30:54;;;;;;;13.07;7.77;;;12.20;88.50;;;;;;4956960;28;20454;-78
2021/03/04 08:33:21;;;;;;;19.73;8.43;;;12.30;88.10;;;;;;4958347;28;20481;-79
2021/03/04 08:35:49;;;;;;;14.70;7.83;;;12.30;87.50;;;;;;4958186;28;20447;-79
2021/03/04 08:38:18;;;;;;;13.50;7.40;;;12.50;87.00;;;;;;4933432;28;20478;-78
2021/03/04 08:40:47;;;;;;;12.37;7.17;;;12.50;85.80;;;;;;4920094;29;20525;-79
2021/03/04 08:43:15;;;;;;;14.60;7.63;;;12.60;85.50;;;;;;4918979;29;20490;-79
2021/03/04 08:45:42;;;;;;;17.20;9.63;;;12.70;85.30;;;;;;4918181;29;20517;-78
2021/03/04 08:48:09;;;;;;;19.37;9.00;;;12.80;85.00;;;;;;4929220;29;20433;-79
2021/03/04 08:50:38;;;;;;;14.10;7.50;;;12.90;84.10;;;;;;4937954;29;20462;-79
2021/03/04 08:53:10;;;;;;;11.13;6.90;;;13.00;83.40;;;;;;4937764;28;20993;-78
2021/03/04 08:55:45;;;;;;;14.60;7.50;;;12.90;82.80;;;;;;4934718;29;20652;-78
2021/03/04 08:58:12;;;;;;;13.20;7.80;;;12.90;83.10;;;;;;4938105;29;20439;-78
2021/03/04 09:00:38;;;;;;;13.90;8.40;;;13.00;82.90;;;;;;4936354;29;20466;-78
2021/03/04 09:03:09;;;;;;;13.53;7.70;;;13.10;82.40;;;;;;4936969;29;21118;-79
2021/03/04 09:05:35;;;;;;;15.30;7.37;;;13.20;82.00;;;;;;4938225;28;20440;-78
2021/03/04 09:08:07;;;;;;;12.30;7.73;;;13.30;81.10;;;;;;4937500;29;20516;-78
2021/03/04 09:10:43;;;;;;;13.17;7.87;;;13.30;80.70;;;;;;4939604;29;20450;-77
2021/03/04 09:13:11;;;;;;;14.03;7.77;;;13.30;80.40;;;;;;4921791;29;20458;-76
2021/03/04 09:15:43;;;;;;;15.83;6.97;;;13.40;80.40;;;;;;4916742;29;20525;-76
2021/03/04 09:18:10;;;;;;;15.90;7.00;;;13.50;80.00;;;;;;4933457;29;20846;-76
2021/03/04 09:20:37;;;;;;;13.40;7.83;;;13.60;80.50;;;;;;4933824;29;20437;-74
2021/03/04 09:23:05;;;;;;;14.10;8.20;;;13.60;79.90;;;;;;4933924;29;20449;-75
2021/03/04 09:25:32;;;;;;;15.30;8.23;;;13.50;80.00;;;;;;4934044;29;20447;-75
2021/03/04 09:27:58;;;;;;;14.33;7.73;;;13.50;79.80;;;;;;4941201;29;20532;-75
2021/03/04 09:30:28;;;;;;;15.27;8.67;;;13.60;80.00;;;;;;4937010;28;20513;-75
2021/03/04 09:32:55;;;;;;;15.90;7.97;;;13.70;80.00;;;;;;4922424;29;20461;-75
2021/03/04 09:35:22;;;;;;;16.00;7.33;;;13.80;80.10;;;;;;4922981;29;20564;-75
2021/03/04 09:37:48;;;;;;;13.83;8.30;;;13.80;79.80;;;;;;4934120;29;20454;-76
2021/03/04 09:40:25;;;;;;;11.30;7.47;;;13.80;79.70;;;;;;4934420;29;20489;-74
2021/03/04 09:42:54;;;;;;;16.50;8.63;;;13.80;80.20;;;;;;4933825;29;20466;-74
2021/03/04 09:45:23;;;;;;;17.73;7.80;;;13.80;80.30;;;;;;4934647;29;20862;-75
2021/03/04 09:47:51;;;;;;;16.63;8.33;;;13.70;80.50;;;;;;4926107;29;20598;-75
2021/03/04 09:50:24;;;;;;;18.00;8.10;;;13.60;80.90;;;;;;4915322;29;20457;-75
2021/03/04 09:53:08;;;;;;;14.23;7.57;;;13.70;81.20;;;;;;4915217;29;20479;-75
2021/03/04 09:55:39;;;;;;;16.20;7.60;;;13.80;81.60;;;;;;4915000;29;20430;-75
2021/03/04 09:58:10;;;;;;;14.73;8.00;;;13.80;81.40;;;;;;4931233;29;20468;-74
2021/03/04 10:00:37;;;;;;;11.43;6.77;;;13.80;81.40;;;;;;4938726;29;20470;-75
2021/03/04 10:03:10;;;;;;;18.93;7.57;;;13.80;81.20;;;;;;4931333;29;21155;-75
2021/03/04 10:05:46;;;;;;;15.27;8.10;;;13.90;81.10;;;;;;4933153;29;20846;-75
2021/03/04 10:08:13;;;;;;;17.23;7.80;;;14.00;81.00;;;;;;4933065;29;20439;-75
2021/03/04 10:10:40;;;;;;;12.67;6.80;;;13.90;80.70;;;;;;4936905;29;20489;-75
2021/03/04 10:13:06;;;;;;;19.97;8.90;;;14.00;81.20;;;;;;4940137;28;20524;-75
2021/03/04 10:15:34;;;;;;;13.83;7.73;;;14.10;81.00;;;;;;4938206;29;20445;-75
2021/03/04 10:18:03;;;;;;;14.90;8.30;;;14.20;80.80;;;;;;4932111;29;20554;-75
2021/03/04 10:20:31;;;;;;;12.93;8.20;;;14.20;82.10;;;;;;4930526;29;20490;-75
2021/03/04 10:22:57;;;;;;;20.67;8.53;;;14.40;82.40;;;;;;4932312;29;20503;-75
2021/03/04 10:25:24;;;;;;;20.30;8.87;;;14.50;82.10;;;;;;4933238;29;20533;-80
2021/03/04 10:27:51;;;;;;;17.00;8.33;;;14.60;82.20;;;;;;4939333;29;20442;-75
2021/03/04 10:30:19;;;;;;;12.33;7.60;;;14.70;82.10;;;;;;4950647;29;20890;-75
2021/03/04 10:32:46;;;;;;;15.83;7.77;;;14.80;81.90;;;;;;4915298;29;20491;-75
2021/03/04 10:35:14;;;;;;;18.00;9.00;;;14.80;81.80;;;;;;4913573;29;20801;-75
2021/03/04 10:37:43;;;;;;;14.80;8.20;;;14.90;81.50;;;;;;4932999;29;20808;-75
2021/03/04 10:40:12;;;;;;;19.97;9.10;;;15.00;82.00;;;;;;4932604;29;21001;-75
2021/03/04 10:42:39;;;;;;;15.70;9.10;;;15.00;82.20;;;;;;4932447;29;20497;-76
2021/03/04 10:45:08;;;;;;;14.67;8.87;;;15.10;82.50;;;;;;4932331;29;20805;-76
2021/03/04 10:47:34;;;;;;;19.47;9.50;;;15.20;81.50;;;;;;4932336;29;20460;-76
2021/03/04 10:50:01;;;;;;;19.40;10.93;;;15.20;81.80;;;;;;4930103;29;20547;-76
2021/03/04 10:52:27;;;;;;;26.93;11.87;;;15.20;82.10;;;;;;4932100;29;21074;-76
2021/03/04 10:54:54;;;;;;;19.90;10.30;;;15.40;82.50;;;;;;4932442;29;20826;-75
2021/03/04 10:57:21;;;;;;;19.27;11.17;;;15.50;82.80;;;;;;4934937;29;20497;-74
2021/03/04 10:59:47;;;;;;;22.27;10.80;;;15.50;82.70;;;;;;4931566;29;20535;-74
2021/03/04 11:02:14;;;;;;;14.47;8.47;;;15.60;82.30;;;;;;4931149;29;20569;-75
2021/03/04 11:04:40;;;;;;;19.17;9.50;;;15.70;81.30;;;;;;4932041;29;20465;-75
2021/03/04 11:07:07;;;;;;;20.90;9.83;;;15.40;82.50;;;;;;4935316;29;20537;-75
2021/03/04 11:09:34;;;;;;;16.10;9.70;;;15.60;82.10;;;;;;4936010;29;20541;-76
2021/03/04 11:12:01;;;;;;;20.73;10.20;;;15.50;80.90;;;;;;4936732;29;20477;-75
2021/03/04 11:14:28;;;;;;;17.07;9.40;;;15.60;81.10;;;;;;4936480;29;20529;-75
2021/03/04 11:16:54;;;;;;;17.30;9.23;;;15.70;81.50;;;;;;4934236;29;20821;-75
2021/03/04 11:19:20;;;;;;;16.73;9.53;;;15.80;81.20;;;;;;4935665;29;20464;-76
2021/03/04 11:21:47;;;;;;;16.23;10.17;;;15.90;80.50;;;;;;4935865;29;20497;-75
2021/03/04 11:24:14;;;;;;;16.47;9.90;;;15.90;79.50;;;;;;4937897;29;20457;-77
2021/03/04 11:26:41;;;;;;;21.63;10.60;;;15.90;79.30;;;;;;4937105;29;20501;-78
2021/03/04 11:29:08;;;;;;;16.60;9.47;;;16.10;79.20;;;;;;4943978;29;20445;-78
2021/03/04 11:31:35;;;;;;;18.90;9.73;;;16.10;79.70;;;;;;4941603;29;20425;-79
2021/03/04 11:34:02;;;;;;;17.87;10.07;;;16.20;80.10;;;;;;4937340;29;20466;-77
2021/03/04 11:36:29;;;;;;;18.43;10.13;;;16.30;79.40;;;;;;4940938;29;20533;-78
2021/03/04 11:38:56;;;;;;;15.33;9.90;;;16.30;79.60;;;;;;4937800;29;20527;-76
2021/03/04 11:41:22;;;;;;;18.03;8.93;;;16.00;79.70;;;;;;4935952;29;21218;-76
2021/03/04 11:43:49;;;;;;;22.40;10.70;;;15.70;80.30;;;;;;4939273;29;20565;-77
2021/03/04 11:46:17;;;;;;;20.20;10.70;;;15.70;80.00;;;;;;4939954;29;20433;-76
2021/03/04 11:48:44;;;;;;;23.83;10.63;;;15.90;80.00;;;;;;4922761;29;20459;-77
2021/03/04 11:51:10;;;;;;;22.23;11.50;;;16.00;79.50;;;;;;4929363;29;20515;-77
2021/03/04 11:53:36;;;;;;;19.43;10.50;;;16.00;79.30;;;;;;4957634;28;20492;-77
2021/03/04 11:56:03;;;;;;;17.50;9.93;;;15.90;79.10;;;;;;4957610;29;20447;-80
2021/03/04 11:58:29;;;;;;;19.20;10.73;;;15.90;79.20;;;;;;4949867;28;20551;-78
2021/03/04 12:00:56;;;;;;;19.43;9.97;;;15.70;79.80;;;;;;4940597;29;20440;-76
2021/03/04 12:03:23;;;;;;;23.20;9.77;;;15.70;79.70;;;;;;4938430;29;20481;-77
2021/03/04 12:05:50;;;;;;;19.37;10.50;;;15.80;79.80;;;;;;4938047;29;20456;-77
2021/03/04 12:08:16;;;;;;;21.67;10.60;;;15.90;78.80;;;;;;4937861;29;20553;-74
2021/03/04 12:10:43;;;;;;;28.20;12.73;;;16.10;78.70;;;;;;4936671;29;20474;-78
2021/03/04 12:13:10;;;;;;;20.40;11.13;;;16.20;79.90;;;;;;4938631;29;20477;-78
2021/03/04 12:15:37;;;;;;;19.50;10.30;;;16.20;80.70;;;;;;4939405;29;20545;-77
2021/03/04 12:18:04;;;;;;;19.60;11.63;;;16.10;80.10;;;;;;4930275;29;20823;-78
2021/03/04 12:20:31;;;;;;;14.63;9.00;;;16.10;79.60;;;;;;4936511;29;20847;-79
2021/03/04 12:22:58;;;;;;;17.20;9.00;;;15.90;77.70;;;;;;4936546;29;20494;-79
2021/03/04 12:25:25;;;;;;;19.13;9.00;;;15.80;77.50;;;;;;4937739;29;20552;-78
2021/03/04 12:27:53;;;;;;;20.97;9.53;;;15.90;77.60;;;;;;4936343;29;20458;-79
2021/03/04 12:30:20;;;;;;;16.27;9.50;;;16.00;77.90;;;;;;4934929;29;20436;-77
2021/03/04 12:32:47;;;;;;;19.47;9.63;;;16.10;77.90;;;;;;4934690;29;20464;-77
2021/03/04 12:35:13;;;;;;;18.60;8.60;;;16.20;77.10;;;;;;4982623;22;20975;-83
2021/03/04 12:37:42;;;;;;;16.60;9.10;;;16.30;75.50;;;;;;5022552;28;20535;-81
2021/03/04 12:40:10;;;;;;;16.00;8.60;;;16.40;74.50;;;;;;5030532;28;20534;-83
2021/03/04 12:42:36;;;;;;;21.43;9.50;;;16.40;74.20;;;;;;5023412;28;20945;-82
2021/03/04 12:45:03;;;;;;;21.90;8.53;;;16.40;73.80;;;;;;5011686;28;20474;-80
2021/03/04 12:47:30;;;;;;;17.00;9.67;;;16.50;74.00;;;;;;5015268;28;20492;-81
2021/03/04 12:49:57;;;;;;;17.90;9.30;;;16.60;73.90;;;;;;5029596;28;20446;-80